Montague, CA (96064)

1:29 AM PDT on September 02, 2014 (GMT -0700)
RAWS VAN BREMMER CA US | Change Station
CLOSE
Current Station
Personal Weather Station
Location: Macdoel, CA
Elevation: 5303 ft
Nearby Weather Stations

Elev 5303 ft 41.64 °N, 121.79 °W | Updated 58 minutes ago

Clear
Clear
60 °F
Feels Like 60 °F
N
2
Wind Variable Wind from West
Gusts 3.0 mph

Today
High -- | Low -- °F
--% Chance of Precip.
Yesterday
High -- | Low -- °F
Precip. -- in
6:34 AM 7:38 PM
Waxing Crescent, 49% visible
Pressure 29.94 in
Visibility 10.0 miles
Clouds Clear
Dew Point 36 °F
Humidity 40%
Rainfall 0.00 in
Snow Depth Not available.
UV 0 out of 12
Pollen 5.80 out of 12
Air Quality Not available.
Flu Activity Not available.
METAR KMHS 020756Z AUTO 07003KT 10SM CLR 14/04 A2997 RMK AO2 SLP136 T01390039 403060094

More Conditions Fewer Conditions

Pressure 29.94 in
Visibility 10.0 miles
Clouds Clear
Dew Point 36 °F
Humidity 40%
Rainfall 0.00 in
Snow Depth Not available.
UV 0 out of 12
Pollen 5.80 out of 12
Air Quality Not available.
Flu Activity Not available.
METAR KMHS 020756Z AUTO 07003KT 10SM CLR 14/04 A2997 RMK AO2 SLP136 T01390039 403060094

More Conditions Fewer Conditions

10-Day Weather Forecast

Almanac

Astronomy

Sep. 02, 2014 Rise Set
Actual Time 6:34 AM PDT 7:38 PM PDT
Civil Twilight 6:06 AM PDT 8:06 PM PDT
Nautical Twilight 5:32 AM PDT 8:40 PM PDT
Astronomical Twilight 4:56 AM PDT 9:15 PM PDT
Moon 2:29 PM PDT No Moon Set
Length of Visible Light 14h 00m
Length of Day
13h 03m
Tomorrow will be 2m 40s shorter.
Waxing Crescent, 49% of the Moon is Illuminated
Today
Waxing Crescent
Sep 2
First Quarter
Sep 8
Full
Sep 15
Last Quarter
Sep 24
New

Today's Extremes

State Highs State Lows

Community

WunderPhotos

Upload Photos

1,749,587 photos uploaded!

WunderBlogs® & News

Nearby

Snow Depth

Station Depth Elevation
Adin Mountain 1 in 6200 ft
Cedar Pass 0 in 7100 ft
CSS Lab 2 in 6900 ft
Rubicon #2 0 in 7500 ft
Fallen Leaf 0 in 6300 ft

Earthquake Activity

City Distance Mag. Time & Date
No recent earthquake activity has been reported nearby.
Minimum magnitude displayed is 2.5.

Coastal Water Temperatures

Place Temperature
No Stations Reporting

Nearby Weather Stations